sensor_id;sensor_type;location;lat;lon;timestamp;P1;durP1;ratioP1;P2;durP2;ratioP2
60098;SDS011;62818;49.394;8.686;2023-11-19T00:00:59;4.50;;;3.00;;
60098;SDS011;62818;49.394;8.686;2023-11-19T00:02:00;4.27;;;2.87;;
60098;SDS011;62818;49.394;8.686;2023-11-19T00:03:00;2.97;;;2.60;;
60098;SDS011;62818;49.394;8.686;2023-11-19T00:04:01;3.20;;;2.72;;
60098;SDS011;62818;49.394;8.686;2023-11-19T00:05:04;3.22;;;2.92;;
60098;SDS011;62818;49.394;8.686;2023-11-19T00:06:09;3.10;;;2.80;;
60098;SDS011;62818;49.394;8.686;2023-11-19T00:07:11;3.65;;;2.92;;
60098;SDS011;62818;49.394;8.686;2023-11-19T00:08:13;3.42;;;2.50;;
60098;SDS011;62818;49.394;8.686;2023-11-19T00:09:13;3.33;;;2.33;;
60098;SDS011;62818;49.394;8.686;2023-11-19T00:10:17;2.70;;;2.50;;
60098;SDS011;62818;49.394;8.686;2023-11-19T00:11:21;7.55;;;2.60;;
60098;SDS011;62818;49.394;8.686;2023-11-19T00:12:21;2.57;;;2.27;;
60098;SDS011;62818;49.394;8.686;2023-11-19T00:13:22;2.88;;;2.63;;
60098;SDS011;62818;49.394;8.686;2023-11-19T00:14:23;3.83;;;2.77;;
60098;SDS011;62818;49.394;8.686;2023-11-19T00:15:25;2.70;;;2.50;;
60098;SDS011;62818;49.394;8.686;2023-11-19T00:16:26;3.57;;;2.50;;
60098;SDS011;62818;49.394;8.686;2023-11-19T00:17:26;4.67;;;2.70;;
60098;SDS011;62818;49.394;8.686;2023-11-19T00:18:27;4.22;;;2.50;;
60098;SDS011;62818;49.394;8.686;2023-11-19T00:19:27;3.13;;;2.60;;
60098;SDS011;62818;49.394;8.686;2023-11-19T00:20:28;3.00;;;2.57;;
60098;SDS011;62818;49.394;8.686;2023-11-19T00:21:29;2.60;;;2.40;;
60098;SDS011;62818;49.394;8.686;2023-11-19T00:22:29;3.03;;;2.53;;
60098;SDS011;62818;49.394;8.686;2023-11-19T00:23:30;2.53;;;2.33;;
60098;SDS011;62818;49.394;8.686;2023-11-19T00:24:30;2.60;;;2.20;;
60098;SDS011;62818;49.394;8.686;2023-11-19T00:25:31;4.18;;;2.30;;
60098;SDS011;62818;49.394;8.686;2023-11-19T00:26:32;4.40;;;2.67;;
60098;SDS011;62818;49.394;8.686;2023-11-19T00:27:32;2.37;;;2.17;;
60098;SDS011;62818;49.394;8.686;2023-11-19T00:28:33;2.43;;;2.23;;
60098;SDS011;62818;49.394;8.686;2023-11-19T00:29:34;2.50;;;2.30;;
60098;SDS011;62818;49.394;8.686;2023-11-19T00:30:34;2.40;;;2.07;;
60098;SDS011;62818;49.394;8.686;2023-11-19T00:31:35;2.93;;;2.00;;
60098;SDS011;62818;49.394;8.686;2023-11-19T00:32:35;3.67;;;2.03;;
60098;SDS011;62818;49.394;8.686;2023-11-19T00:33:38;3.30;;;2.25;;
60098;SDS011;62818;49.394;8.686;2023-11-19T00:34:39;2.30;;;2.10;;
60098;SDS011;62818;49.394;8.686;2023-11-19T00:35:40;4.93;;;2.20;;
60098;SDS011;62818;49.394;8.686;2023-11-19T00:36:40;2.13;;;1.93;;
60098;SDS011;62818;49.394;8.686;2023-11-19T00:37:41;2.17;;;1.97;;
60098;SDS011;62818;49.394;8.686;2023-11-19T00:39:43;3.45;;;1.90;;
60098;SDS011;62818;49.394;8.686;2023-11-19T00:40:44;1.83;;;1.73;;
60098;SDS011;62818;49.394;8.686;2023-11-19T00:41:44;3.83;;;1.63;;
60098;SDS011;62818;49.394;8.686;2023-11-19T00:42:46;2.67;;;1.88;;
60098;SDS011;62818;49.394;8.686;2023-11-19T00:43:47;3.25;;;2.00;;
60098;SDS011;62818;49.394;8.686;2023-11-19T00:44:49;4.05;;;1.95;;
60098;SDS011;62818;49.394;8.686;2023-11-19T00:45:50;1.92;;;1.83;;
60098;SDS011;62818;49.394;8.686;2023-11-19T00:46:50;2.00;;;1.80;;
60098;SDS011;62818;49.394;8.686;2023-11-19T00:47:51;1.77;;;1.60;;
60098;SDS011;62818;49.394;8.686;2023-11-19T00:48:51;2.80;;;1.73;;
60098;SDS011;62818;49.394;8.686;2023-11-19T00:49:53;4.13;;;1.80;;
60098;SDS011;62818;49.394;8.686;2023-11-19T00:50:53;2.00;;;1.80;;
60098;SDS011;62818;49.394;8.686;2023-11-19T00:51:54;4.93;;;1.53;;
60098;SDS011;62818;49.394;8.686;2023-11-19T00:52:54;1.97;;;1.80;;
60098;SDS011;62818;49.394;8.686;2023-11-19T00:53:55;2.43;;;1.67;;
60098;SDS011;62818;49.394;8.686;2023-11-19T00:54:55;4.40;;;1.77;;
60098;SDS011;62818;49.394;8.686;2023-11-19T00:55:56;1.90;;;1.80;;
60098;SDS011;62818;49.394;8.686;2023-11-19T00:56:57;1.90;;;1.80;;
60098;SDS011;62818;49.394;8.686;2023-11-19T00:57:58;1.70;;;1.60;;
60098;SDS011;62818;49.394;8.686;2023-11-19T00:58:58;1.70;;;1.60;;
60098;SDS011;62818;49.394;8.686;2023-11-19T01:00:00;1.45;;;1.30;;
60098;SDS011;62818;49.394;8.686;2023-11-19T01:01:00;1.40;;;1.30;;
60098;SDS011;62818;49.394;8.686;2023-11-19T01:02:01;2.97;;;1.60;;
60098;SDS011;62818;49.394;8.686;2023-11-19T01:03:06;1.92;;;1.60;;
60098;SDS011;62818;49.394;8.686;2023-11-19T01:04:07;4.07;;;1.98;;
60098;SDS011;62818;49.394;8.686;2023-11-19T01:05:08;5.75;;;2.40;;
60098;SDS011;62818;49.394;8.686;2023-11-19T01:06:09;3.23;;;1.93;;
60098;SDS011;62818;49.394;8.686;2023-11-19T01:07:09;1.60;;;1.50;;
60098;SDS011;62818;49.394;8.686;2023-11-19T01:08:13;1.92;;;1.50;;
60098;SDS011;62818;49.394;8.686;2023-11-19T01:09:14;1.55;;;1.38;;
60098;SDS011;62818;49.394;8.686;2023-11-19T01:10:15;2.43;;;1.50;;
60098;SDS011;62818;49.394;8.686;2023-11-19T01:11:19;1.77;;;1.30;;
60098;SDS011;62818;49.394;8.686;2023-11-19T01:12:21;1.80;;;1.70;;
60098;SDS011;62818;49.394;8.686;2023-11-19T01:13:22;2.20;;;1.50;;
60098;SDS011;62818;49.394;8.686;2023-11-19T01:14:22;2.53;;;1.60;;
60098;SDS011;62818;49.394;8.686;2023-11-19T01:15:23;2.73;;;1.60;;
60098;SDS011;62818;49.394;8.686;2023-11-19T01:16:23;1.50;;;1.40;;
60098;SDS011;62818;49.394;8.686;2023-11-19T01:17:26;3.92;;;1.60;;
60098;SDS011;62818;49.394;8.686;2023-11-19T01:18:26;1.70;;;1.60;;
60098;SDS011;62818;49.394;8.686;2023-11-19T01:19:27;1.43;;;1.37;;
60098;SDS011;62818;49.394;8.686;2023-11-19T01:20:28;1.75;;;1.63;;
60098;SDS011;62818;49.394;8.686;2023-11-19T01:21:29;2.57;;;1.47;;
60098;SDS011;62818;49.394;8.686;2023-11-19T01:22:29;1.98;;;1.42;;
60098;SDS011;62818;49.394;8.686;2023-11-19T01:23:30;1.50;;;1.40;;
60098;SDS011;62818;49.394;8.686;2023-11-19T01:24:30;2.10;;;1.40;;
60098;SDS011;62818;49.394;8.686;2023-11-19T01:25:31;1.83;;;1.50;;
60098;SDS011;62818;49.394;8.686;2023-11-19T01:26:31;1.70;;;1.43;;
60098;SDS011;62818;49.394;8.686;2023-11-19T01:27:32;1.87;;;1.77;;
60098;SDS011;62818;49.394;8.686;2023-11-19T01:28:36;2.47;;;1.40;;
60098;SDS011;62818;49.394;8.686;2023-11-19T01:29:39;1.98;;;1.60;;
60098;SDS011;62818;49.394;8.686;2023-11-19T01:30:39;1.40;;;1.30;;
60098;SDS011;62818;49.394;8.686;2023-11-19T01:31:41;1.58;;;1.48;;
60098;SDS011;62818;49.394;8.686;2023-11-19T01:32:43;1.30;;;1.20;;
60098;SDS011;62818;49.394;8.686;2023-11-19T01:33:43;1.40;;;1.30;;
60098;SDS011;62818;49.394;8.686;2023-11-19T01:34:44;1.47;;;1.37;;
60098;SDS011;62818;49.394;8.686;2023-11-19T01:35:45;1.47;;;1.37;;
60098;SDS011;62818;49.394;8.686;2023-11-19T01:36:46;1.30;;;1.20;;
60098;SDS011;62818;49.394;8.686;2023-11-19T01:37:48;1.67;;;1.50;;
60098;SDS011;62818;49.394;8.686;2023-11-19T01:38:50;1.35;;;1.33;;
60098;SDS011;62818;49.394;8.686;2023-11-19T01:39:51;1.37;;;1.30;;
60098;SDS011;62818;49.394;8.686;2023-11-19T01:40:55;1.47;;;1.37;;
60098;SDS011;62818;49.394;8.686;2023-11-19T01:41:57;1.58;;;1.35;;
60098;SDS011;62818;49.394;8.686;2023-11-19T01:42:57;2.03;;;1.30;;
60098;SDS011;62818;49.394;8.686;2023-11-19T01:43:58;1.53;;;1.43;;
60098;SDS011;62818;49.394;8.686;2023-11-19T01:44:59;1.60;;;1.50;;
60098;SDS011;62818;49.394;8.686;2023-11-19T01:46:01;1.13;;;1.13;;
60098;SDS011;62818;49.394;8.686;2023-11-19T01:47:04;1.48;;;1.38;;
60098;SDS011;62818;49.394;8.686;2023-11-19T01:48:06;2.60;;;1.48;;
60098;SDS011;62818;49.394;8.686;2023-11-19T01:49:07;1.33;;;1.30;;
60098;SDS011;62818;49.394;8.686;2023-11-19T01:50:09;1.23;;;1.10;;
60098;SDS011;62818;49.394;8.686;2023-11-19T01:51:09;1.40;;;1.30;;
60098;SDS011;62818;49.394;8.686;2023-11-19T01:52:11;1.48;;;1.38;;
60098;SDS011;62818;49.394;8.686;2023-11-19T01:53:11;1.33;;;1.30;;
60098;SDS011;62818;49.394;8.686;2023-11-19T01:54:12;1.67;;;1.30;;
60098;SDS011;62818;49.394;8.686;2023-11-19T01:55:13;1.60;;;1.50;;
60098;SDS011;62818;49.394;8.686;2023-11-19T01:56:14;1.40;;;1.30;;
60098;SDS011;62818;49.394;8.686;2023-11-19T01:57:16;1.55;;;1.45;;
60098;SDS011;62818;49.394;8.686;2023-11-19T01:58:17;1.35;;;1.33;;
60098;SDS011;62818;49.394;8.686;2023-11-19T01:59:18;1.40;;;1.30;;
60098;SDS011;62818;49.394;8.686;2023-11-19T02:00:20;1.20;;;1.20;;
60098;SDS011;62818;49.394;8.686;2023-11-19T02:01:21;1.83;;;1.43;;
60098;SDS011;62818;49.394;8.686;2023-11-19T02:02:22;1.43;;;1.30;;
60098;SDS011;62818;49.394;8.686;2023-11-19T02:03:22;1.70;;;1.60;;
60098;SDS011;62818;49.394;8.686;2023-11-19T02:04:26;1.70;;;1.35;;
60098;SDS011;62818;49.394;8.686;2023-11-19T02:05:27;1.67;;;1.50;;
60098;SDS011;62818;49.394;8.686;2023-11-19T02:06:28;1.52;;;1.42;;
60098;SDS011;62818;49.394;8.686;2023-11-19T02:07:29;1.70;;;1.60;;
60098;SDS011;62818;49.394;8.686;2023-11-19T02:08:31;2.55;;;1.67;;
60098;SDS011;62818;49.394;8.686;2023-11-19T02:09:32;1.98;;;1.67;;
60098;SDS011;62818;49.394;8.686;2023-11-19T02:10:32;1.77;;;1.60;;
60098;SDS011;62818;49.394;8.686;2023-11-19T02:11:33;1.70;;;1.60;;
60098;SDS011;62818;49.394;8.686;2023-11-19T02:12:34;1.60;;;1.50;;
60098;SDS011;62818;49.394;8.686;2023-11-19T02:13:36;1.80;;;1.70;;
60098;SDS011;62818;49.394;8.686;2023-11-19T02:14:38;1.73;;;1.63;;
60098;SDS011;62818;49.394;8.686;2023-11-19T02:15:38;1.93;;;1.80;;
60098;SDS011;62818;49.394;8.686;2023-11-19T02:16:40;1.70;;;1.60;;
60098;SDS011;62818;49.394;8.686;2023-11-19T02:17:41;2.00;;;1.83;;
60098;SDS011;62818;49.394;8.686;2023-11-19T02:18:43;2.28;;;1.80;;
60098;SDS011;62818;49.394;8.686;2023-11-19T02:19:43;2.00;;;1.90;;
60098;SDS011;62818;49.394;8.686;2023-11-19T02:20:44;3.47;;;1.90;;
60098;SDS011;62818;49.394;8.686;2023-11-19T02:21:44;4.83;;;1.70;;
60098;SDS011;62818;49.394;8.686;2023-11-19T02:22:46;1.80;;;1.70;;
60098;SDS011;62818;49.394;8.686;2023-11-19T02:23:48;2.15;;;1.95;;
60098;SDS011;62818;49.394;8.686;2023-11-19T02:24:49;1.73;;;1.63;;
60098;SDS011;62818;49.394;8.686;2023-11-19T02:26:02;2.00;;;1.90;;
60098;SDS011;62818;49.394;8.686;2023-11-19T02:27:10;3.03;;;1.90;;
60098;SDS011;62818;49.394;8.686;2023-11-19T02:28:24;2.03;;;1.92;;
60098;SDS011;62818;49.394;8.686;2023-11-19T02:29:24;2.00;;;1.90;;
60098;SDS011;62818;49.394;8.686;2023-11-19T02:30:25;2.07;;;1.97;;
60098;SDS011;62818;49.394;8.686;2023-11-19T02:31:29;2.10;;;1.92;;
60098;SDS011;62818;49.394;8.686;2023-11-19T02:32:29;1.80;;;1.70;;
60098;SDS011;62818;49.394;8.686;2023-11-19T02:33:30;2.00;;;1.90;;
60098;SDS011;62818;49.394;8.686;2023-11-19T02:34:31;2.07;;;1.70;;
60098;SDS011;62818;49.394;8.686;2023-11-19T02:35:32;1.80;;;1.70;;
60098;SDS011;62818;49.394;8.686;2023-11-19T02:36:33;2.28;;;2.00;;
60098;SDS011;62818;49.394;8.686;2023-11-19T02:37:34;3.27;;;1.70;;
60098;SDS011;62818;49.394;8.686;2023-11-19T02:38:35;1.80;;;1.70;;
60098;SDS011;62818;49.394;8.686;2023-11-19T02:39:36;2.47;;;1.85;;
60098;SDS011;62818;49.394;8.686;2023-11-19T02:40:37;1.83;;;1.40;;
60098;SDS011;62818;49.394;8.686;2023-11-19T02:41:37;1.93;;;1.60;;
60098;SDS011;62818;49.394;8.686;2023-11-19T02:42:39;1.83;;;1.60;;
60098;SDS011;62818;49.394;8.686;2023-11-19T02:43:40;1.90;;;1.80;;
60098;SDS011;62818;49.394;8.686;2023-11-19T02:44:43;2.30;;;1.50;;
60098;SDS011;62818;49.394;8.686;2023-11-19T02:45:45;1.60;;;1.50;;
60098;SDS011;62818;49.394;8.686;2023-11-19T02:46:45;1.50;;;1.40;;
60098;SDS011;62818;49.394;8.686;2023-11-19T02:47:48;1.60;;;1.40;;
60098;SDS011;62818;49.394;8.686;2023-11-19T02:48:49;1.63;;;1.52;;
60098;SDS011;62818;49.394;8.686;2023-11-19T02:49:50;2.10;;;1.67;;
60098;SDS011;62818;49.394;8.686;2023-11-19T02:50:50;2.47;;;1.50;;
60098;SDS011;62818;49.394;8.686;2023-11-19T02:51:52;1.77;;;1.60;;
60098;SDS011;62818;49.394;8.686;2023-11-19T02:52:53;1.80;;;1.70;;
60098;SDS011;62818;49.394;8.686;2023-11-19T02:53:58;2.10;;;1.77;;
60098;SDS011;62818;49.394;8.686;2023-11-19T02:54:59;1.60;;;1.50;;
60098;SDS011;62818;49.394;8.686;2023-11-19T02:55:59;1.67;;;1.57;;
60098;SDS011;62818;49.394;8.686;2023-11-19T02:57:11;3.42;;;1.67;;
60098;SDS011;62818;49.394;8.686;2023-11-19T02:58:13;1.60;;;1.50;;
60098;SDS011;62818;49.394;8.686;2023-11-19T02:59:20;1.73;;;1.63;;
60098;SDS011;62818;49.394;8.686;2023-11-19T03:00:27;2.03;;;1.88;;
60098;SDS011;62818;49.394;8.686;2023-11-19T03:01:35;1.80;;;1.70;;
60098;SDS011;62818;49.394;8.686;2023-11-19T03:02:36;2.37;;;1.63;;
60098;SDS011;62818;49.394;8.686;2023-11-19T03:03:44;1.75;;;1.65;;
60098;SDS011;62818;49.394;8.686;2023-11-19T03:04:53;1.70;;;1.60;;
60098;SDS011;62818;49.394;8.686;2023-11-19T03:05:54;1.70;;;1.60;;
60098;SDS011;62818;49.394;8.686;2023-11-19T03:06:55;1.80;;;1.70;;
60098;SDS011;62818;49.394;8.686;2023-11-19T03:07:55;2.23;;;2.03;;
60098;SDS011;62818;49.394;8.686;2023-11-19T03:08:57;2.03;;;1.92;;
60098;SDS011;62818;49.394;8.686;2023-11-19T03:09:57;1.90;;;1.60;;
60098;SDS011;62818;49.394;8.686;2023-11-19T03:10:57;1.93;;;1.83;;
60098;SDS011;62818;49.394;8.686;2023-11-19T03:11:59;3.10;;;2.58;;
60098;SDS011;62818;49.394;8.686;2023-11-19T03:12:59;1.77;;;1.53;;
60098;SDS011;62818;49.394;8.686;2023-11-19T03:14:02;3.78;;;2.00;;
60098;SDS011;62818;49.394;8.686;2023-11-19T03:15:05;2.28;;;1.80;;
60098;SDS011;62818;49.394;8.686;2023-11-19T03:16:07;3.10;;;1.88;;
60098;SDS011;62818;49.394;8.686;2023-11-19T03:17:08;1.85;;;1.70;;
60098;SDS011;62818;49.394;8.686;2023-11-19T03:19:10;3.10;;;1.77;;
60098;SDS011;62818;49.394;8.686;2023-11-19T03:20:11;2.87;;;1.73;;
60098;SDS011;62818;49.394;8.686;2023-11-19T03:21:16;1.80;;;1.70;;
60098;SDS011;62818;49.394;8.686;2023-11-19T03:22:17;2.13;;;1.77;;
60098;SDS011;62818;49.394;8.686;2023-11-19T03:23:18;2.30;;;2.10;;
60098;SDS011;62818;49.394;8.686;2023-11-19T03:24:18;2.13;;;1.50;;
60098;SDS011;62818;49.394;8.686;2023-11-19T03:25:18;2.20;;;2.00;;
60098;SDS011;62818;49.394;8.686;2023-11-19T03:26:19;1.70;;;1.60;;
60098;SDS011;62818;49.394;8.686;2023-11-19T03:27:19;5.17;;;2.00;;
60098;SDS011;62818;49.394;8.686;2023-11-19T03:28:20;2.20;;;1.80;;
60098;SDS011;62818;49.394;8.686;2023-11-19T03:29:20;2.00;;;1.90;;
60098;SDS011;62818;49.394;8.686;2023-11-19T03:30:21;1.70;;;1.60;;
60098;SDS011;62818;49.394;8.686;2023-11-19T03:31:22;1.83;;;1.70;;
60098;SDS011;62818;49.394;8.686;2023-11-19T03:32:22;2.57;;;1.50;;
60098;SDS011;62818;49.394;8.686;2023-11-19T03:33:23;3.03;;;1.83;;
60098;SDS011;62818;49.394;8.686;2023-11-19T03:34:25;3.13;;;1.88;;
60098;SDS011;62818;49.394;8.686;2023-11-19T03:35:26;3.03;;;1.80;;
60098;SDS011;62818;49.394;8.686;2023-11-19T03:36:34;1.80;;;1.70;;
60098;SDS011;62818;49.394;8.686;2023-11-19T03:37:34;2.00;;;1.80;;
60098;SDS011;62818;49.394;8.686;2023-11-19T03:38:36;2.25;;;1.92;;
60098;SDS011;62818;49.394;8.686;2023-11-19T03:39:37;2.70;;;2.10;;
60098;SDS011;62818;49.394;8.686;2023-11-19T03:40:37;4.07;;;2.63;;
60098;SDS011;62818;49.394;8.686;2023-11-19T03:41:38;2.65;;;2.20;;
60098;SDS011;62818;49.394;8.686;2023-11-19T03:42:39;2.63;;;1.80;;
60098;SDS011;62818;49.394;8.686;2023-11-19T03:43:40;2.43;;;1.93;;
60098;SDS011;62818;49.394;8.686;2023-11-19T03:44:41;2.38;;;1.90;;
60098;SDS011;62818;49.394;8.686;2023-11-19T03:45:41;1.83;;;1.73;;
60098;SDS011;62818;49.394;8.686;2023-11-19T03:46:42;4.37;;;3.30;;
60098;SDS011;62818;49.394;8.686;2023-11-19T03:47:43;2.20;;;2.00;;
60098;SDS011;62818;49.394;8.686;2023-11-19T03:48:43;2.30;;;1.73;;
60098;SDS011;62818;49.394;8.686;2023-11-19T03:49:47;4.57;;;2.10;;
60098;SDS011;62818;49.394;8.686;2023-11-19T03:50:51;3.05;;;1.95;;
60098;SDS011;62818;49.394;8.686;2023-11-19T03:51:51;1.80;;;1.70;;
60098;SDS011;62818;49.394;8.686;2023-11-19T03:52:52;2.33;;;1.97;;
60098;SDS011;62818;49.394;8.686;2023-11-19T03:53:52;2.90;;;1.80;;
60098;SDS011;62818;49.394;8.686;2023-11-19T03:54:53;2.90;;;1.80;;
60098;SDS011;62818;49.394;8.686;2023-11-19T03:55:55;4.53;;;2.00;;
60098;SDS011;62818;49.394;8.686;2023-11-19T03:56:55;3.33;;;2.20;;
60098;SDS011;62818;49.394;8.686;2023-11-19T03:57:56;3.33;;;1.80;;
60098;SDS011;62818;49.394;8.686;2023-11-19T03:58:56;2.20;;;2.00;;
60098;SDS011;62818;49.394;8.686;2023-11-19T03:59:57;1.97;;;1.87;;
60098;SDS011;62818;49.394;8.686;2023-11-19T04:00:58;3.72;;;2.08;;
60098;SDS011;62818;49.394;8.686;2023-11-19T04:01:59;4.27;;;2.57;;
60098;SDS011;62818;49.394;8.686;2023-11-19T04:03:02;2.63;;;2.10;;
60098;SDS011;62818;49.394;8.686;2023-11-19T04:04:03;2.30;;;2.10;;
60098;SDS011;62818;49.394;8.686;2023-11-19T04:05:04;2.33;;;2.03;;
60098;SDS011;62818;49.394;8.686;2023-11-19T04:06:05;2.60;;;2.08;;
60098;SDS011;62818;49.394;8.686;2023-11-19T04:07:06;2.22;;;2.00;;
60098;SDS011;62818;49.394;8.686;2023-11-19T04:08:07;2.23;;;2.03;;
60098;SDS011;62818;49.394;8.686;2023-11-19T04:09:07;2.53;;;2.23;;
60098;SDS011;62818;49.394;8.686;2023-11-19T04:10:08;3.10;;;1.93;;
60098;SDS011;62818;49.394;8.686;2023-11-19T04:11:08;2.85;;;2.00;;
60098;SDS011;62818;49.394;8.686;2023-11-19T04:12:09;5.63;;;2.28;;
60098;SDS011;62818;49.394;8.686;2023-11-19T04:13:10;2.00;;;1.90;;
60098;SDS011;62818;49.394;8.686;2023-11-19T04:14:11;2.10;;;1.90;;
60098;SDS011;62818;49.394;8.686;2023-11-19T04:15:11;1.97;;;1.87;;
60098;SDS011;62818;49.394;8.686;2023-11-19T04:16:12;2.87;;;2.27;;
60098;SDS011;62818;49.394;8.686;2023-11-19T04:17:12;2.23;;;1.77;;
60098;SDS011;62818;49.394;8.686;2023-11-19T04:18:13;3.37;;;1.93;;
60098;SDS011;62818;49.394;8.686;2023-11-19T04:19:13;1.60;;;1.50;;
60098;SDS011;62818;49.394;8.686;2023-11-19T04:20:14;2.90;;;2.40;;
60098;SDS011;62818;49.394;8.686;2023-11-19T04:21:15;2.75;;;1.98;;
60098;SDS011;62818;49.394;8.686;2023-11-19T04:22:16;2.53;;;1.90;;
60098;SDS011;62818;49.394;8.686;2023-11-19T04:23:16;4.00;;;1.90;;
60098;SDS011;62818;49.394;8.686;2023-11-19T04:24:17;2.17;;;1.90;;
60098;SDS011;62818;49.394;8.686;2023-11-19T04:25:17;2.87;;;1.90;;
60098;SDS011;62818;49.394;8.686;2023-11-19T04:26:19;2.20;;;1.70;;
60098;SDS011;62818;49.394;8.686;2023-11-19T04:27:19;2.17;;;1.97;;
60098;SDS011;62818;49.394;8.686;2023-11-19T04:28:20;2.10;;;1.90;;
60098;SDS011;62818;49.394;8.686;2023-11-19T04:29:20;3.20;;;2.07;;
60098;SDS011;62818;49.394;8.686;2023-11-19T04:30:21;3.73;;;2.00;;
60098;SDS011;62818;49.394;8.686;2023-11-19T04:31:21;2.50;;;1.80;;
60098;SDS011;62818;49.394;8.686;2023-11-19T04:32:22;3.97;;;1.60;;
60098;SDS011;62818;49.394;8.686;2023-11-19T04:33:23;4.93;;;1.83;;
60098;SDS011;62818;49.394;8.686;2023-11-19T04:34:23;1.90;;;1.70;;
60098;SDS011;62818;49.394;8.686;2023-11-19T04:35:24;1.97;;;1.73;;
60098;SDS011;62818;49.394;8.686;2023-11-19T04:36:26;4.20;;;2.13;;
60098;SDS011;62818;49.394;8.686;2023-11-19T04:37:27;2.03;;;1.83;;
60098;SDS011;62818;49.394;8.686;2023-11-19T04:38:27;1.93;;;1.83;;
60098;SDS011;62818;49.394;8.686;2023-11-19T04:39:28;2.03;;;1.83;;
60098;SDS011;62818;49.394;8.686;2023-11-19T04:40:29;1.73;;;1.63;;
60098;SDS011;62818;49.394;8.686;2023-11-19T04:41:29;1.67;;;1.57;;
60098;SDS011;62818;49.394;8.686;2023-11-19T04:42:30;3.60;;;2.10;;
60098;SDS011;62818;49.394;8.686;2023-11-19T04:43:32;1.92;;;1.83;;
60098;SDS011;62818;49.394;8.686;2023-11-19T04:44:32;1.90;;;1.73;;
60098;SDS011;62818;49.394;8.686;2023-11-19T04:45:32;1.70;;;1.60;;
60098;SDS011;62818;49.394;8.686;2023-11-19T04:46:33;3.03;;;1.80;;
60098;SDS011;62818;49.394;8.686;2023-11-19T04:47:34;2.03;;;1.83;;
60098;SDS011;62818;49.394;8.686;2023-11-19T04:48:34;3.37;;;2.43;;
60098;SDS011;62818;49.394;8.686;2023-11-19T04:49:35;2.87;;;1.90;;
60098;SDS011;62818;49.394;8.686;2023-11-19T04:50:39;2.00;;;1.85;;
60098;SDS011;62818;49.394;8.686;2023-11-19T04:51:40;3.60;;;2.20;;
60098;SDS011;62818;49.394;8.686;2023-11-19T04:52:42;2.20;;;2.00;;
60098;SDS011;62818;49.394;8.686;2023-11-19T04:53:45;2.65;;;1.90;;
60098;SDS011;62818;49.394;8.686;2023-11-19T04:54:45;5.30;;;2.10;;
60098;SDS011;62818;49.394;8.686;2023-11-19T04:55:46;2.80;;;2.30;;
60098;SDS011;62818;49.394;8.686;2023-11-19T04:56:46;2.07;;;1.70;;
60098;SDS011;62818;49.394;8.686;2023-11-19T04:57:49;2.22;;;2.03;;
60098;SDS011;62818;49.394;8.686;2023-11-19T04:58:50;2.37;;;2.10;;
60098;SDS011;62818;49.394;8.686;2023-11-19T04:59:50;3.57;;;2.07;;
60098;SDS011;62818;49.394;8.686;2023-11-19T05:00:51;2.30;;;2.10;;
60098;SDS011;62818;49.394;8.686;2023-11-19T05:01:51;2.43;;;2.23;;
60098;SDS011;62818;49.394;8.686;2023-11-19T05:02:52;2.30;;;2.10;;
60098;SDS011;62818;49.394;8.686;2023-11-19T05:03:52;2.30;;;2.10;;
60098;SDS011;62818;49.394;8.686;2023-11-19T05:04:53;2.47;;;2.00;;
60098;SDS011;62818;49.394;8.686;2023-11-19T05:05:53;3.23;;;2.00;;
60098;SDS011;62818;49.394;8.686;2023-11-19T05:06:54;2.47;;;2.00;;
60098;SDS011;62818;49.394;8.686;2023-11-19T05:07:54;2.20;;;2.00;;
60098;SDS011;62818;49.394;8.686;2023-11-19T05:08:55;3.13;;;2.43;;
60098;SDS011;62818;49.394;8.686;2023-11-19T05:09:58;2.33;;;2.13;;
60098;SDS011;62818;49.394;8.686;2023-11-19T05:10:58;2.30;;;2.10;;
60098;SDS011;62818;49.394;8.686;2023-11-19T05:11:59;3.60;;;2.20;;
60098;SDS011;62818;49.394;8.686;2023-11-19T05:12:59;2.43;;;2.23;;
60098;SDS011;62818;49.394;8.686;2023-11-19T05:14:00;2.80;;;2.60;;
60098;SDS011;62818;49.394;8.686;2023-11-19T05:15:04;2.58;;;2.05;;
60098;SDS011;62818;49.394;8.686;2023-11-19T05:16:05;2.58;;;1.77;;
60098;SDS011;62818;49.394;8.686;2023-11-19T05:17:06;4.75;;;2.10;;
60098;SDS011;62818;49.394;8.686;2023-11-19T05:18:07;8.00;;;6.18;;
60098;SDS011;62818;49.394;8.686;2023-11-19T05:19:08;6.78;;;4.45;;
60098;SDS011;62818;49.394;8.686;2023-11-19T05:20:09;6.20;;;2.80;;
60098;SDS011;62818;49.394;8.686;2023-11-19T05:21:13;4.43;;;2.50;;
60098;SDS011;62818;49.394;8.686;2023-11-19T05:22:13;6.03;;;4.13;;
60098;SDS011;62818;49.394;8.686;2023-11-19T05:23:14;3.27;;;2.37;;
60098;SDS011;62818;49.394;8.686;2023-11-19T05:24:14;2.63;;;2.10;;
60098;SDS011;62818;49.394;8.686;2023-11-19T05:25:15;3.13;;;2.50;;
60098;SDS011;62818;49.394;8.686;2023-11-19T05:26:18;3.10;;;2.20;;
60098;SDS011;62818;49.394;8.686;2023-11-19T05:27:20;2.67;;;2.30;;
60098;SDS011;62818;49.394;8.686;2023-11-19T05:28:21;3.10;;;2.10;;
60098;SDS011;62818;49.394;8.686;2023-11-19T05:29:21;3.10;;;2.10;;
60098;SDS011;62818;49.394;8.686;2023-11-19T05:30:21;2.50;;;2.30;;
60098;SDS011;62818;49.394;8.686;2023-11-19T05:31:23;2.67;;;2.45;;
60098;SDS011;62818;49.394;8.686;2023-11-19T05:32:23;5.10;;;2.13;;
60098;SDS011;62818;49.394;8.686;2023-11-19T05:33:24;2.50;;;2.30;;
60098;SDS011;62818;49.394;8.686;2023-11-19T05:34:24;4.90;;;2.60;;
60098;SDS011;62818;49.394;8.686;2023-11-19T05:35:25;3.07;;;2.40;;
60098;SDS011;62818;49.394;8.686;2023-11-19T05:36:25;7.47;;;2.50;;
60098;SDS011;62818;49.394;8.686;2023-11-19T05:37:28;2.42;;;2.13;;
60098;SDS011;62818;49.394;8.686;2023-11-19T05:38:29;5.10;;;3.17;;
60098;SDS011;62818;49.394;8.686;2023-11-19T05:39:30;5.38;;;4.35;;
60098;SDS011;62818;49.394;8.686;2023-11-19T05:40:31;3.50;;;2.60;;
60098;SDS011;62818;49.394;8.686;2023-11-19T05:41:31;5.37;;;3.57;;
60098;SDS011;62818;49.394;8.686;2023-11-19T05:42:32;3.00;;;2.67;;
60098;SDS011;62818;49.394;8.686;2023-11-19T05:43:32;2.60;;;2.40;;
60098;SDS011;62818;49.394;8.686;2023-11-19T05:44:33;2.45;;;2.22;;
60098;SDS011;62818;49.394;8.686;2023-11-19T05:45:34;3.17;;;2.17;;
60098;SDS011;62818;49.394;8.686;2023-11-19T05:46:34;2.57;;;2.07;;
60098;SDS011;62818;49.394;8.686;2023-11-19T05:47:40;4.07;;;2.25;;
60098;SDS011;62818;49.394;8.686;2023-11-19T05:48:41;3.30;;;2.42;;
60098;SDS011;62818;49.394;8.686;2023-11-19T05:49:42;2.38;;;2.17;;
60098;SDS011;62818;49.394;8.686;2023-11-19T05:50:43;4.43;;;2.65;;
60098;SDS011;62818;49.394;8.686;2023-11-19T05:51:44;4.40;;;2.15;;
60098;SDS011;62818;49.394;8.686;2023-11-19T05:52:46;3.45;;;2.42;;
60098;SDS011;62818;49.394;8.686;2023-11-19T05:53:46;5.17;;;2.40;;
60098;SDS011;62818;49.394;8.686;2023-11-19T05:54:50;2.63;;;2.20;;
60098;SDS011;62818;49.394;8.686;2023-11-19T05:55:52;2.60;;;2.40;;
60098;SDS011;62818;49.394;8.686;2023-11-19T05:56:56;2.88;;;2.33;;
60098;SDS011;62818;49.394;8.686;2023-11-19T05:57:57;2.72;;;2.35;;
60098;SDS011;62818;49.394;8.686;2023-11-19T05:58:58;2.87;;;2.20;;
60098;SDS011;62818;49.394;8.686;2023-11-19T06:00:03;4.97;;;2.20;;
60098;SDS011;62818;49.394;8.686;2023-11-19T06:01:10;2.38;;;2.17;;
60098;SDS011;62818;49.394;8.686;2023-11-19T06:02:11;5.03;;;2.60;;
60098;SDS011;62818;49.394;8.686;2023-11-19T06:03:11;2.67;;;2.30;;
60098;SDS011;62818;49.394;8.686;2023-11-19T06:04:12;4.73;;;2.70;;
60098;SDS011;62818;49.394;8.686;2023-11-19T06:05:12;3.23;;;2.60;;
60098;SDS011;62818;49.394;8.686;2023-11-19T06:06:13;3.43;;;2.37;;
60098;SDS011;62818;49.394;8.686;2023-11-19T06:07:13;2.50;;;2.23;;
60098;SDS011;62818;49.394;8.686;2023-11-19T06:08:15;5.13;;;2.40;;
60098;SDS011;62818;49.394;8.686;2023-11-19T06:09:16;2.40;;;2.03;;
60098;SDS011;62818;49.394;8.686;2023-11-19T06:10:18;3.80;;;2.50;;
60098;SDS011;62818;49.394;8.686;2023-11-19T06:11:20;4.65;;;2.88;;
60098;SDS011;62818;49.394;8.686;2023-11-19T06:12:21;3.20;;;2.40;;